sensor_id;sensor_type;location;lat;lon;timestamp;temperature;humidity
71436;SHT31;59251;51.326;12.370;2023-05-10T00:01:26;11.64;71.71
71436;SHT31;59251;51.326;12.370;2023-05-10T00:03:52;11.58;71.79
71436;SHT31;59251;51.326;12.370;2023-05-10T00:06:17;11.50;72.01
71436;SHT31;59251;51.326;12.370;2023-05-10T00:08:43;11.52;71.93
71436;SHT31;59251;51.326;12.370;2023-05-10T00:11:08;11.62;71.89
71436;SHT31;59251;51.326;12.370;2023-05-10T00:13:33;11.61;71.91
71436;SHT31;59251;51.326;12.370;2023-05-10T00:15:59;11.52;71.99
71436;SHT31;59251;51.326;12.370;2023-05-10T00:18:24;11.51;72.12
71436;SHT31;59251;51.326;12.370;2023-05-10T00:20:50;11.50;72.15
71436;SHT31;59251;51.326;12.370;2023-05-10T00:23:15;11.44;72.38
71436;SHT31;59251;51.326;12.370;2023-05-10T00:25:40;11.41;72.65
71436;SHT31;59251;51.326;12.370;2023-05-10T00:28:06;11.39;72.60
71436;SHT31;59251;51.326;12.370;2023-05-10T00:30:31;11.34;72.79
71436;SHT31;59251;51.326;12.370;2023-05-10T00:32:56;11.34;72.81
71436;SHT31;59251;51.326;12.370;2023-05-10T00:35:22;11.30;72.85
71436;SHT31;59251;51.326;12.370;2023-05-10T00:37:48;11.24;73.00
71436;SHT31;59251;51.326;12.370;2023-05-10T00:40:13;11.24;73.04
71436;SHT31;59251;51.326;12.370;2023-05-10T00:42:38;11.21;73.17
71436;SHT31;59251;51.326;12.370;2023-05-10T00:45:05;11.27;72.94
71436;SHT31;59251;51.326;12.370;2023-05-10T00:47:31;11.23;73.08
71436;SHT31;59251;51.326;12.370;2023-05-10T00:49:56;11.21;73.02
71436;SHT31;59251;51.326;12.370;2023-05-10T00:52:22;11.21;73.10
71436;SHT31;59251;51.326;12.370;2023-05-10T00:54:50;11.23;73.17
71436;SHT31;59251;51.326;12.370;2023-05-10T00:57:15;11.17;73.11
71436;SHT31;59251;51.326;12.370;2023-05-10T00:59:40;11.18;73.11
71436;SHT31;59251;51.326;12.370;2023-05-10T01:02:06;11.13;73.28
71436;SHT31;59251;51.326;12.370;2023-05-10T01:04:31;11.13;73.37
71436;SHT31;59251;51.326;12.370;2023-05-10T01:06:57;11.11;73.35
71436;SHT31;59251;51.326;12.370;2023-05-10T01:09:23;11.13;73.36
71436;SHT31;59251;51.326;12.370;2023-05-10T01:11:51;11.10;73.43
71436;SHT31;59251;51.326;12.370;2023-05-10T01:14:18;11.09;73.49
71436;SHT31;59251;51.326;12.370;2023-05-10T01:16:45;11.09;73.51
71436;SHT31;59251;51.326;12.370;2023-05-10T01:19:28;11.13;73.55
71436;SHT31;59251;51.326;12.370;2023-05-10T01:33:01;11.03;73.64
71436;SHT31;59251;51.326;12.370;2023-05-10T01:35:35;11.00;73.65
71436;SHT31;59251;51.326;12.370;2023-05-10T01:38:17;11.00;73.62
71436;SHT31;59251;51.326;12.370;2023-05-10T01:41:13;11.00;73.75
71436;SHT31;59251;51.326;12.370;2023-05-10T01:43:57;10.99;73.79
71436;SHT31;59251;51.326;12.370;2023-05-10T01:46:36;10.93;73.89
71436;SHT31;59251;51.326;12.370;2023-05-10T01:49:03;10.97;73.81
71436;SHT31;59251;51.326;12.370;2023-05-10T01:51:41;10.92;74.01
71436;SHT31;59251;51.326;12.370;2023-05-10T01:54:08;10.93;74.03
71436;SHT31;59251;51.326;12.370;2023-05-10T01:56:35;10.95;73.91
71436;SHT31;59251;51.326;12.370;2023-05-10T01:59:06;10.99;73.81
71436;SHT31;59251;51.326;12.370;2023-05-10T02:01:36;11.00;73.80
71436;SHT31;59251;51.326;12.370;2023-05-10T02:04:02;10.96;73.77
71436;SHT31;59251;51.326;12.370;2023-05-10T02:06:28;10.99;73.88
71436;SHT31;59251;51.326;12.370;2023-05-10T02:08:54;10.97;73.85
71436;SHT31;59251;51.326;12.370;2023-05-10T02:11:21;10.97;73.84
71436;SHT31;59251;51.326;12.370;2023-05-10T02:13:49;10.90;73.99
71436;SHT31;59251;51.326;12.370;2023-05-10T02:16:16;10.89;74.18
71436;SHT31;59251;51.326;12.370;2023-05-10T02:18:42;10.92;74.19
71436;SHT31;59251;51.326;12.370;2023-05-10T02:21:08;10.88;74.24
71436;SHT31;59251;51.326;12.370;2023-05-10T02:23:36;10.84;74.36
71436;SHT31;59251;51.326;12.370;2023-05-10T02:26:03;10.86;74.39
71436;SHT31;59251;51.326;12.370;2023-05-10T02:28:30;10.83;74.43
71436;SHT31;59251;51.326;12.370;2023-05-10T02:30:57;10.80;74.52
71436;SHT31;59251;51.326;12.370;2023-05-10T02:33:23;10.79;74.64
71436;SHT31;59251;51.326;12.370;2023-05-10T02:35:50;10.75;74.72
71436;SHT31;59251;51.326;12.370;2023-05-10T02:38:17;10.75;74.78
71436;SHT31;59251;51.326;12.370;2023-05-10T02:40:44;10.70;74.96
71436;SHT31;59251;51.326;12.370;2023-05-10T02:43:12;10.69;74.96
71436;SHT31;59251;51.326;12.370;2023-05-10T02:45:40;10.70;74.94
71436;SHT31;59251;51.326;12.370;2023-05-10T02:48:06;10.70;75.05
71436;SHT31;59251;51.326;12.370;2023-05-10T02:50:33;10.66;75.18
71436;SHT31;59251;51.326;12.370;2023-05-10T02:53:08;10.65;75.18
71436;SHT31;59251;51.326;12.370;2023-05-10T02:55:39;10.61;75.32
71436;SHT31;59251;51.326;12.370;2023-05-10T02:58:05;10.58;75.53
71436;SHT31;59251;51.326;12.370;2023-05-10T03:00:31;10.51;75.66
71436;SHT31;59251;51.326;12.370;2023-05-10T03:02:56;10.45;75.92
71436;SHT31;59251;51.326;12.370;2023-05-10T03:05:22;10.44;76.09
71436;SHT31;59251;51.326;12.370;2023-05-10T03:07:48;10.44;76.09
71436;SHT31;59251;51.326;12.370;2023-05-10T03:10:13;10.42;76.16
71436;SHT31;59251;51.326;12.370;2023-05-10T03:15:42;10.37;76.41
71436;SHT31;59251;51.326;12.370;2023-05-10T03:18:16;10.35;76.44
71436;SHT31;59251;51.326;12.370;2023-05-10T03:20:47;10.35;76.55
71436;SHT31;59251;51.326;12.370;2023-05-10T03:23:43;10.34;76.49
71436;SHT31;59251;51.326;12.370;2023-05-10T03:26:09;10.37;76.55
71436;SHT31;59251;51.326;12.370;2023-05-10T03:28:39;10.34;76.69
71436;SHT31;59251;51.326;12.370;2023-05-10T03:31:06;10.31;76.85
71436;SHT31;59251;51.326;12.370;2023-05-10T03:33:32;10.30;76.93
71436;SHT31;59251;51.326;12.370;2023-05-10T03:35:57;10.30;76.89
71436;SHT31;59251;51.326;12.370;2023-05-10T03:38:22;10.30;76.98
71436;SHT31;59251;51.326;12.370;2023-05-10T03:40:48;10.34;76.85
71436;SHT31;59251;51.326;12.370;2023-05-10T03:43:13;10.31;76.93
71436;SHT31;59251;51.326;12.370;2023-05-10T03:45:38;10.34;76.85
71436;SHT31;59251;51.326;12.370;2023-05-10T03:48:05;10.35;76.90
71436;SHT31;59251;51.326;12.370;2023-05-10T03:50:30;10.38;76.85
71436;SHT31;59251;51.326;12.370;2023-05-10T03:52:56;10.40;76.84
71436;SHT31;59251;51.326;12.370;2023-05-10T03:55:22;10.41;76.80
71436;SHT31;59251;51.326;12.370;2023-05-10T03:57:47;10.44;76.74
71436;SHT31;59251;51.326;12.370;2023-05-10T04:00:15;10.38;76.78
71436;SHT31;59251;51.326;12.370;2023-05-10T04:02:40;10.46;76.90
71436;SHT31;59251;51.326;12.370;2023-05-10T04:05:06;10.51;76.71
71436;SHT31;59251;51.326;12.370;2023-05-10T04:07:31;10.53;76.66
71436;SHT31;59251;51.326;12.370;2023-05-10T04:09:57;10.63;76.43
71436;SHT31;59251;51.326;12.370;2023-05-10T04:12:22;10.63;76.33
71436;SHT31;59251;51.326;12.370;2023-05-10T04:14:47;10.75;76.10
71436;SHT31;59251;51.326;12.370;2023-05-10T04:17:13;10.76;76.04
71436;SHT31;59251;51.326;12.370;2023-05-10T04:19:38;10.73;76.12
71436;SHT31;59251;51.326;12.370;2023-05-10T04:22:03;10.80;75.92
71436;SHT31;59251;51.326;12.370;2023-05-10T04:24:29;10.90;75.66
71436;SHT31;59251;51.326;12.370;2023-05-10T04:26:54;10.92;75.62
71436;SHT31;59251;51.326;12.370;2023-05-10T04:29:20;11.07;75.27
71436;SHT31;59251;51.326;12.370;2023-05-10T04:31:45;11.17;75.00
71436;SHT31;59251;51.326;12.370;2023-05-10T04:34:11;11.30;74.67
71436;SHT31;59251;51.326;12.370;2023-05-10T04:36:36;11.57;74.00
71436;SHT31;59251;51.326;12.370;2023-05-10T04:39:03;11.76;73.30
71436;SHT31;59251;51.326;12.370;2023-05-10T04:41:29;11.86;73.15
71436;SHT31;59251;51.326;12.370;2023-05-10T04:43:54;11.87;73.08
71436;SHT31;59251;51.326;12.370;2023-05-10T04:46:20;12.00;72.77
71436;SHT31;59251;51.326;12.370;2023-05-10T04:48:45;12.17;72.20
71436;SHT31;59251;51.326;12.370;2023-05-10T04:51:11;12.41;71.63
71436;SHT31;59251;51.326;12.370;2023-05-10T04:53:36;12.44;71.23
71436;SHT31;59251;51.326;12.370;2023-05-10T04:56:02;12.67;70.94
71436;SHT31;59251;51.326;12.370;2023-05-10T04:58:27;12.77;70.67
71436;SHT31;59251;51.326;12.370;2023-05-10T05:00:52;13.01;69.96
71436;SHT31;59251;51.326;12.370;2023-05-10T05:03:18;13.08;69.76
71436;SHT31;59251;51.326;12.370;2023-05-10T05:05:43;13.24;69.22
71436;SHT31;59251;51.326;12.370;2023-05-10T05:08:09;13.61;68.31
71436;SHT31;59251;51.326;12.370;2023-05-10T05:10:34;13.54;68.11
71436;SHT31;59251;51.326;12.370;2023-05-10T05:13:00;13.98;67.52
71436;SHT31;59251;51.326;12.370;2023-05-10T05:15:25;14.32;66.59
71436;SHT31;59251;51.326;12.370;2023-05-10T05:17:51;14.26;66.13
71436;SHT31;59251;51.326;12.370;2023-05-10T05:20:16;14.74;65.46
71436;SHT31;59251;51.326;12.370;2023-05-10T05:22:42;14.69;65.65
71436;SHT31;59251;51.326;12.370;2023-05-10T05:25:07;14.81;64.99
71436;SHT31;59251;51.326;12.370;2023-05-10T05:27:33;14.95;64.97
71436;SHT31;59251;51.326;12.370;2023-05-10T05:29:58;14.76;65.01
71436;SHT31;59251;51.326;12.370;2023-05-10T05:32:24;15.25;64.53
71436;SHT31;59251;51.326;12.370;2023-05-10T05:34:50;15.28;63.75
71436;SHT31;59251;51.326;12.370;2023-05-10T05:37:19;15.45;63.34
71436;SHT31;59251;51.326;12.370;2023-05-10T05:39:45;15.73;62.53
71436;SHT31;59251;51.326;12.370;2023-05-10T05:42:11;15.20;63.68
71436;SHT31;59251;51.326;12.370;2023-05-10T05:44:37;15.35;63.61
71436;SHT31;59251;51.326;12.370;2023-05-10T05:47:03;14.77;65.37
71436;SHT31;59251;51.326;12.370;2023-05-10T05:49:29;14.87;65.30
71436;SHT31;59251;51.326;12.370;2023-05-10T05:51:54;14.52;66.26
71436;SHT31;59251;51.326;12.370;2023-05-10T05:54:20;14.57;66.74
71436;SHT31;59251;51.326;12.370;2023-05-10T05:56:45;14.57;66.40
71436;SHT31;59251;51.326;12.370;2023-05-10T05:59:11;14.50;66.68
71436;SHT31;59251;51.326;12.370;2023-05-10T06:01:36;14.77;66.28
71436;SHT31;59251;51.326;12.370;2023-05-10T06:04:02;14.50;67.02
71436;SHT31;59251;51.326;12.370;2023-05-10T06:06:27;14.47;67.55
71436;SHT31;59251;51.326;12.370;2023-05-10T06:08:53;14.29;68.02
71436;SHT31;59251;51.326;12.370;2023-05-10T06:11:18;14.69;67.44
71436;SHT31;59251;51.326;12.370;2023-05-10T06:13:44;14.80;67.09
71436;SHT31;59251;51.326;12.370;2023-05-10T06:16:09;14.80;67.04
71436;SHT31;59251;51.326;12.370;2023-05-10T06:18:35;14.79;67.53
71436;SHT31;59251;51.326;12.370;2023-05-10T06:21:00;14.77;67.43
71436;SHT31;59251;51.326;12.370;2023-05-10T06:23:25;14.83;67.42
71436;SHT31;59251;51.326;12.370;2023-05-10T06:25:51;15.04;67.21
71436;SHT31;59251;51.326;12.370;2023-05-10T06:28:17;15.17;66.93
71436;SHT31;59251;51.326;12.370;2023-05-10T06:30:42;15.25;66.93
71436;SHT31;59251;51.326;12.370;2023-05-10T06:33:07;15.85;66.64
71436;SHT31;59251;51.326;12.370;2023-05-10T06:35:33;15.89;65.02
71436;SHT31;59251;51.326;12.370;2023-05-10T06:37:59;15.43;65.49
71436;SHT31;59251;51.326;12.370;2023-05-10T06:40:24;15.70;65.32
71436;SHT31;59251;51.326;12.370;2023-05-10T06:42:50;15.62;65.26
71436;SHT31;59251;51.326;12.370;2023-05-10T06:45:16;15.86;65.06
71436;SHT31;59251;51.326;12.370;2023-05-10T06:47:41;16.01;64.16
71436;SHT31;59251;51.326;12.370;2023-05-10T06:50:08;16.52;63.08
71436;SHT31;59251;51.326;12.370;2023-05-10T06:52:34;16.66;62.83
71436;SHT31;59251;51.326;12.370;2023-05-10T06:54:59;16.86;62.39
71436;SHT31;59251;51.326;12.370;2023-05-10T06:57:25;16.76;62.81
71436;SHT31;59251;51.326;12.370;2023-05-10T06:59:51;16.35;63.85
71436;SHT31;59251;51.326;12.370;2023-05-10T07:02:17;16.22;64.34
71436;SHT31;59251;51.326;12.370;2023-05-10T07:04:42;16.56;63.33
71436;SHT31;59251;51.326;12.370;2023-05-10T07:07:08;16.79;62.73
71436;SHT31;59251;51.326;12.370;2023-05-10T07:09:33;16.82;62.41
71436;SHT31;59251;51.326;12.370;2023-05-10T07:11:59;17.09;62.31
71436;SHT31;59251;51.326;12.370;2023-05-10T07:14:24;17.12;62.18
71436;SHT31;59251;51.326;12.370;2023-05-10T07:16:50;16.76;62.96
71436;SHT31;59251;51.326;12.370;2023-05-10T07:19:15;16.73;63.11
71436;SHT31;59251;51.326;12.370;2023-05-10T07:21:40;16.99;62.66
71436;SHT31;59251;51.326;12.370;2023-05-10T07:24:08;17.30;62.02
71436;SHT31;59251;51.326;12.370;2023-05-10T07:26:33;17.34;61.79
71436;SHT31;59251;51.326;12.370;2023-05-10T07:28:59;17.60;61.72
71436;SHT31;59251;51.326;12.370;2023-05-10T07:31:24;17.48;61.36
71436;SHT31;59251;51.326;12.370;2023-05-10T07:33:49;18.03;60.42
71436;SHT31;59251;51.326;12.370;2023-05-10T07:36:15;18.19;60.36
71436;SHT31;59251;51.326;12.370;2023-05-10T07:38:40;17.98;60.65
71436;SHT31;59251;51.326;12.370;2023-05-10T07:41:05;17.98;60.89
71436;SHT31;59251;51.326;12.370;2023-05-10T07:43:31;17.95;60.90
71436;SHT31;59251;51.326;12.370;2023-05-10T07:45:56;17.86;60.98
71436;SHT31;59251;51.326;12.370;2023-05-10T07:48:22;17.47;62.43
71436;SHT31;59251;51.326;12.370;2023-05-10T07:50:48;17.55;62.23
71436;SHT31;59251;51.326;12.370;2023-05-10T07:53:13;17.68;61.92
71436;SHT31;59251;51.326;12.370;2023-05-10T07:55:38;17.95;61.69
71436;SHT31;59251;51.326;12.370;2023-05-10T07:58:03;17.75;62.25
71436;SHT31;59251;51.326;12.370;2023-05-10T08:00:29;17.89;62.12
71436;SHT31;59251;51.326;12.370;2023-05-10T08:02:54;17.72;62.41
71436;SHT31;59251;51.326;12.370;2023-05-10T08:05:20;17.32;63.40
71436;SHT31;59251;51.326;12.370;2023-05-10T08:07:45;17.28;63.76
71436;SHT31;59251;51.326;12.370;2023-05-10T08:10:10;16.86;64.84
71436;SHT31;59251;51.326;12.370;2023-05-10T08:12:36;17.44;64.21
71436;SHT31;59251;51.326;12.370;2023-05-10T08:15:02;17.35;64.46
71436;SHT31;59251;51.326;12.370;2023-05-10T08:17:28;17.67;63.97
71436;SHT31;59251;51.326;12.370;2023-05-10T08:19:53;17.60;63.77
71436;SHT31;59251;51.326;12.370;2023-05-10T08:22:19;17.44;65.14
71436;SHT31;59251;51.326;12.370;2023-05-10T08:24:44;17.42;65.10
71436;SHT31;59251;51.326;12.370;2023-05-10T08:27:10;16.79;67.40
71436;SHT31;59251;51.326;12.370;2023-05-10T08:29:35;17.03;67.55
71436;SHT31;59251;51.326;12.370;2023-05-10T08:32:01;16.93;67.99
71436;SHT31;59251;51.326;12.370;2023-05-10T08:34:26;16.62;68.63
71436;SHT31;59251;51.326;12.370;2023-05-10T08:36:52;17.10;67.67
71436;SHT31;59251;51.326;12.370;2023-05-10T08:39:18;17.13;67.36
71436;SHT31;59251;51.326;12.370;2023-05-10T08:41:44;16.58;68.37
71436;SHT31;59251;51.326;12.370;2023-05-10T08:44:10;16.79;68.81
71436;SHT31;59251;51.326;12.370;2023-05-10T08:46:37;16.42;69.83
71436;SHT31;59251;51.326;12.370;2023-05-10T08:49:06;16.59;70.28
71436;SHT31;59251;51.326;12.370;2023-05-10T08:51:36;16.36;70.58
71436;SHT31;59251;51.326;12.370;2023-05-10T08:54:02;15.85;71.82
71436;SHT31;59251;51.326;12.370;2023-05-10T08:56:28;15.56;73.12
71436;SHT31;59251;51.326;12.370;2023-05-10T08:58:54;15.85;72.72
71436;SHT31;59251;51.326;12.370;2023-05-10T09:01:21;15.70;73.45
71436;SHT31;59251;51.326;12.370;2023-05-10T09:03:46;15.08;75.79
71436;SHT31;59251;51.326;12.370;2023-05-10T09:06:13;14.94;77.51
71436;SHT31;59251;51.326;12.370;2023-05-10T09:08:41;14.76;78.31
71436;SHT31;59251;51.326;12.370;2023-05-10T09:11:07;14.83;79.18
71436;SHT31;59251;51.326;12.370;2023-05-10T09:13:34;14.87;79.98
71436;SHT31;59251;51.326;12.370;2023-05-10T09:16:00;14.45;81.28
71436;SHT31;59251;51.326;12.370;2023-05-10T09:18:26;14.26;81.96
71436;SHT31;59251;51.326;12.370;2023-05-10T09:20:51;14.22;82.98
71436;SHT31;59251;51.326;12.370;2023-05-10T09:23:16;14.24;83.33
71436;SHT31;59251;51.326;12.370;2023-05-10T09:25:42;14.25;83.89
71436;SHT31;59251;51.326;12.370;2023-05-10T09:28:08;14.15;84.56
71436;SHT31;59251;51.326;12.370;2023-05-10T09:30:34;14.18;85.08
71436;SHT31;59251;51.326;12.370;2023-05-10T09:33:00;13.85;86.02
71436;SHT31;59251;51.326;12.370;2023-05-10T09:35:28;13.79;86.96
71436;SHT31;59251;51.326;12.370;2023-05-10T09:37:55;13.81;87.28
71436;SHT31;59251;51.326;12.370;2023-05-10T09:40:23;13.97;87.26
71436;SHT31;59251;51.326;12.370;2023-05-10T09:42:57;14.24;86.36
71436;SHT31;59251;51.326;12.370;2023-05-10T09:45:24;14.14;87.09
71436;SHT31;59251;51.326;12.370;2023-05-10T09:47:49;13.84;88.19
71436;SHT31;59251;51.326;12.370;2023-05-10T09:50:15;14.29;86.81
71436;SHT31;59251;51.326;12.370;2023-05-10T09:52:57;13.97;88.17
71436;SHT31;59251;51.326;12.370;2023-05-10T09:55:41;13.94;88.63
71436;SHT31;59251;51.326;12.370;2023-05-10T09:58:07;13.98;89.50
71436;SHT31;59251;51.326;12.370;2023-05-10T10:00:47;14.06;89.28
71436;SHT31;59251;51.326;12.370;2023-05-10T10:03:18;13.82;89.68
71436;SHT31;59251;51.326;12.370;2023-05-10T10:05:44;14.00;89.31
71436;SHT31;59251;51.326;12.370;2023-05-10T10:08:12;14.11;90.25
71436;SHT31;59251;51.326;12.370;2023-05-10T10:10:38;14.42;89.18
71436;SHT31;59251;51.326;12.370;2023-05-10T10:13:05;14.09;89.08
71436;SHT31;59251;51.326;12.370;2023-05-10T10:15:32;14.06;90.82
71436;SHT31;59251;51.326;12.370;2023-05-10T10:17:58;14.50;89.06
71436;SHT31;59251;51.326;12.370;2023-05-10T10:20:25;14.22;89.69
71436;SHT31;59251;51.326;12.370;2023-05-10T10:22:51;14.67;88.84
71436;SHT31;59251;51.326;12.370;2023-05-10T10:25:17;14.46;90.46
71436;SHT31;59251;51.326;12.370;2023-05-10T10:35:39;14.47;90.10
71436;SHT31;59251;51.326;12.370;2023-05-10T10:38:07;14.39;91.40
71436;SHT31;59251;51.326;12.370;2023-05-10T10:40:33;14.53;91.46
71436;SHT31;59251;51.326;12.370;2023-05-10T10:43:22;14.42;91.08
71436;SHT31;59251;51.326;12.370;2023-05-10T10:46:17;14.55;91.46
71436;SHT31;59251;51.326;12.370;2023-05-10T10:49:09;14.43;91.76
71436;SHT31;59251;51.326;12.370;2023-05-10T10:51:38;14.22;92.46
71436;SHT31;59251;51.326;12.370;2023-05-10T10:54:10;14.25;92.28
71436;SHT31;59251;51.326;12.370;2023-05-10T10:56:36;14.32;93.06
71436;SHT31;59251;51.326;12.370;2023-05-10T10:59:01;14.60;91.63
71436;SHT31;59251;51.326;12.370;2023-05-10T11:01:35;14.81;91.19
71436;SHT31;59251;51.326;12.370;2023-05-10T11:06:33;14.30;92.39
71436;SHT31;59251;51.326;12.370;2023-05-10T11:08:59;14.45;92.88
71436;SHT31;59251;51.326;12.370;2023-05-10T11:11:25;14.16;92.80
71436;SHT31;59251;51.326;12.370;2023-05-10T11:13:51;14.08;94.04
71436;SHT31;59251;51.326;12.370;2023-05-10T11:16:24;14.06;94.95
71436;SHT31;59251;51.326;12.370;2023-05-10T11:18:59;14.11;95.12
71436;SHT31;59251;51.326;12.370;2023-05-10T11:21:27;14.35;95.65
71436;SHT31;59251;51.326;12.370;2023-05-10T11:23:55;14.52;93.96
71436;SHT31;59251;51.326;12.370;2023-05-10T11:26:23;14.50;94.08
71436;SHT31;59251;51.326;12.370;2023-05-10T11:28:54;14.55;93.88
71436;SHT31;59251;51.326;12.370;2023-05-10T11:31:23;14.77;94.04
71436;SHT31;59251;51.326;12.370;2023-05-10T11:33:53;14.93;93.75
71436;SHT31;59251;51.326;12.370;2023-05-10T11:36:35;15.36;92.30
71436;SHT31;59251;51.326;12.370;2023-05-10T11:39:01;15.29;92.40
71436;SHT31;59251;51.326;12.370;2023-05-10T11:41:29;15.43;92.50
71436;SHT31;59251;51.326;12.370;2023-05-10T11:43:55;15.63;91.40
71436;SHT31;59251;51.326;12.370;2023-05-10T11:46:22;15.39;91.70
71436;SHT31;59251;51.326;12.370;2023-05-10T11:48:50;15.66;91.59
71436;SHT31;59251;51.326;12.370;2023-05-10T11:51:20;15.58;91.05
71436;SHT31;59251;51.326;12.370;2023-05-10T11:53:46;15.48;91.90
71436;SHT31;59251;51.326;12.370;2023-05-10T11:56:11;15.38;92.26
71436;SHT31;59251;51.326;12.370;2023-05-10T11:58:39;15.60;92.22
71436;SHT31;59251;51.326;12.370;2023-05-10T12:01:06;15.60;92.21
71436;SHT31;59251;51.326;12.370;2023-05-10T12:03:32;15.50;92.16
71436;SHT31;59251;51.326;12.370;2023-05-10T12:05:59;15.79;91.56
71436;SHT31;59251;51.326;12.370;2023-05-10T12:08:26;15.53;92.29
71436;SHT31;59251;51.326;12.370;2023-05-10T12:11:03;15.38;92.45
71436;SHT31;59251;51.326;12.370;2023-05-10T12:13:29;15.59;92.63
71436;SHT31;59251;51.326;12.370;2023-05-10T12:15:57;15.53;93.04
71436;SHT31;59251;51.326;12.370;2023-05-10T12:18:23;15.67;92.40
71436;SHT31;59251;51.326;12.370;2023-05-10T12:20:52;15.55;93.09
71436;SHT31;59251;51.326;12.370;2023-05-10T12:23:21;15.83;92.57
71436;SHT31;59251;51.326;12.370;2023-05-10T12:25:46;15.85;92.90
71436;SHT31;59251;51.326;12.370;2023-05-10T12:28:12;15.90;93.01
71436;SHT31;59251;51.326;12.370;2023-05-10T12:30:37;15.56;92.93
71436;SHT31;59251;51.326;12.370;2023-05-10T12:33:12;15.77;92.42
71436;SHT31;59251;51.326;12.370;2023-05-10T12:36:04;15.79;92.13
71436;SHT31;59251;51.326;12.370;2023-05-10T12:38:37;16.06;91.72
71436;SHT31;59251;51.326;12.370;2023-05-10T12:41:08;16.25;90.51
71436;SHT31;59251;51.326;12.370;2023-05-10T12:43:35;16.41;90.54
71436;SHT31;59251;51.326;12.370;2023-05-10T12:46:16;16.13;91.33
71436;SHT31;59251;51.326;12.370;2023-05-10T12:48:43;15.79;92.00
71436;SHT31;59251;51.326;12.370;2023-05-10T12:51:09;16.22;90.94
71436;SHT31;59251;51.326;12.370;2023-05-10T12:53:35;16.14;91.95
71436;SHT31;59251;51.326;12.370;2023-05-10T12:56:01;16.22;91.35
71436;SHT31;59251;51.326;12.370;2023-05-10T12:58:26;16.24;91.23
71436;SHT31;59251;51.326;12.370;2023-05-10T13:00:52;16.14;90.98
71436;SHT31;59251;51.326;12.370;2023-05-10T13:03:17;15.82;91.72
71436;SHT31;59251;51.326;12.370;2023-05-10T13:05:43;16.24;90.52
71436;SHT31;59251;51.326;12.370;2023-05-10T13:08:08;16.35;89.85
71436;SHT31;59251;51.326;12.370;2023-05-10T13:10:34;16.52;89.22
71436;SHT31;59251;51.326;12.370;2023-05-10T13:12:59;16.47;89.44
71436;SHT31;59251;51.326;12.370;2023-05-10T13:15:25;16.41;90.19
71436;SHT31;59251;51.326;12.370;2023-05-10T13:17:51;16.86;88.39
71436;SHT31;59251;51.326;12.370;2023-05-10T13:20:16;16.83;87.57
71436;SHT31;59251;51.326;12.370;2023-05-10T13:22:43;16.28;87.75
71436;SHT31;59251;51.326;12.370;2023-05-10T13:25:09;16.35;89.18
71436;SHT31;59251;51.326;12.370;2023-05-10T13:27:34;16.41;89.79
71436;SHT31;59251;51.326;12.370;2023-05-10T13:30:00;16.42;89.61
71436;SHT31;59251;51.326;12.370;2023-05-10T13:32:25;16.64;89.95
71436;SHT31;59251;51.326;12.370;2023-05-10T13:34:51;16.55;89.17
71436;SHT31;59251;51.326;12.370;2023-05-10T13:37:16;17.09;87.58
71436;SHT31;59251;51.326;12.370;2023-05-10T13:39:42;17.07;87.79
71436;SHT31;59251;51.326;12.370;2023-05-10T13:42:07;17.12;87.08
71436;SHT31;59251;51.326;12.370;2023-05-10T13:44:32;16.61;89.39
71436;SHT31;59251;51.326;12.370;2023-05-10T13:46:59;16.83;88.65
71436;SHT31;59251;51.326;12.370;2023-05-10T13:49:24;16.18;90.24
71436;SHT31;59251;51.326;12.370;2023-05-10T13:51:49;16.24;90.81
71436;SHT31;59251;51.326;12.370;2023-05-10T13:54:16;15.89;91.00
71436;SHT31;59251;51.326;12.370;2023-05-10T13:56:44;16.24;91.37
71436;SHT31;59251;51.326;12.370;2023-05-10T13:59:10;16.41;91.43
71436;SHT31;59251;51.326;12.370;2023-05-10T14:01:35;16.27;90.87
71436;SHT31;59251;51.326;12.370;2023-05-10T14:04:01;16.59;89.56
71436;SHT31;59251;51.326;12.370;2023-05-10T14:06:26;16.55;88.69
71436;SHT31;59251;51.326;12.370;2023-05-10T14:08:52;16.59;89.81
71436;SHT31;59251;51.326;12.370;2023-05-10T14:11:18;16.52;89.62
71436;SHT31;59251;51.326;12.370;2023-05-10T14:13:44;16.06;91.07
71436;SHT31;59251;51.326;12.370;2023-05-10T14:16:09;15.90;91.63
71436;SHT31;59251;51.326;12.370;2023-05-10T14:18:34;16.14;91.79
71436;SHT31;59251;51.326;12.370;2023-05-10T14:21:01;16.22;92.02
71436;SHT31;59251;51.326;12.370;2023-05-10T14:23:27;15.96;92.95
71436;SHT31;59251;51.326;12.370;2023-05-10T14:25:53;15.90;93.87
71436;SHT31;59251;51.326;12.370;2023-05-10T14:28:19;16.17;93.61
71436;SHT31;59251;51.326;12.370;2023-05-10T14:30:46;16.47;92.10
71436;SHT31;59251;51.326;12.370;2023-05-10T14:33:11;16.21;92.28
71436;SHT31;59251;51.326;12.370;2023-05-10T14:35:37;15.79;93.77
71436;SHT31;59251;51.326;12.370;2023-05-10T14:38:03;15.77;94.71
71436;SHT31;59251;51.326;12.370;2023-05-10T14:40:31;15.70;94.23
71436;SHT31;59251;51.326;12.370;2023-05-10T14:42:57;15.71;94.40
71436;SHT31;59251;51.326;12.370;2023-05-10T14:45:22;15.41;95.47
71436;SHT31;59251;51.326;12.370;2023-05-10T14:47:49;15.39;96.16
71436;SHT31;59251;51.326;12.370;2023-05-10T14:50:15;15.52;95.80
71436;SHT31;59251;51.326;12.370;2023-05-10T14:52:41;14.97;97.43
71436;SHT31;59251;51.326;12.370;2023-05-10T14:55:07;14.91;98.47
71436;SHT31;59251;51.326;12.370;2023-05-10T14:57:32;14.85;98.88
71436;SHT31;59251;51.326;12.370;2023-05-10T14:59:58;14.83;97.77
71436;SHT31;59251;51.326;12.370;2023-05-10T15:02:23;14.64;96.54
71436;SHT31;59251;51.326;12.370;2023-05-10T15:04:49;14.53;98.07
71436;SHT31;59251;51.326;12.370;2023-05-10T15:07:14;14.21;97.42
71436;SHT31;59251;51.326;12.370;2023-05-10T15:09:41;14.26;98.04
71436;SHT31;59251;51.326;12.370;2023-05-10T15:12:07;14.18;99.05
71436;SHT31;59251;51.326;12.370;2023-05-10T15:14:32;14.14;98.59
71436;SHT31;59251;51.326;12.370;2023-05-10T15:16:58;13.88;99.71
71436;SHT31;59251;51.326;12.370;2023-05-10T15:19:23;13.91;99.99
71436;SHT31;59251;51.326;12.370;2023-05-10T15:21:49;14.18;99.99
71436;SHT31;59251;51.326;12.370;2023-05-10T15:24:14;13.92;99.43
71436;SHT31;59251;51.326;12.370;2023-05-10T15:26:40;13.88;99.26
71436;SHT31;59251;51.326;12.370;2023-05-10T15:29:05;13.88;99.46
71436;SHT31;59251;51.326;12.370;2023-05-10T15:31:31;13.88;99.68
71436;SHT31;59251;51.326;12.370;2023-05-10T15:33:59;13.92;99.30
71436;SHT31;59251;51.326;12.370;2023-05-10T15:36:24;14.16;99.60
71436;SHT31;59251;51.326;12.370;2023-05-10T15:38:50;14.09;99.30